Time,TemperatureF,DewpointF,PressureIn,WindDirection,WindDirectionDegrees,WindSpeedMPH,WindSpeedGustMPH,Humidity,HourlyPrecipIn,Conditions,Clouds,dailyrainin,SoftwareType,DateUTC
2013-01-21 00:31:00,28.0,27.0,30.14,ENE,71,0.0,0.0,94,0.00,,,0.25,weatherlink.com 1.10,2013-01-21 05:31:00,
2013-01-21 01:01:00,27.3,26.0,30.15,ENE,71,0.0,0.0,94,0.00,,,0.25,weatherlink.com 1.10,2013-01-21 06:01:00,
2013-01-21 01:46:00,26.5,25.0,30.14,ENE,71,0.0,0.0,94,0.00,,,0.25,weatherlink.com 1.10,2013-01-21 06:46:00,
2013-01-21 02:01:00,27.0,26.0,30.14,ENE,71,0.0,0.0,95,0.00,,,0.00,weatherlink.com 1.10,2013-01-21 07:01:00,
2013-01-21 02:17:00,26.3,25.0,30.14,ENE,71,0.0,0.0,94,0.00,,,0.00,weatherlink.com 1.10,2013-01-21 07:17:00,
2013-01-21 02:46:00,26.1,25.0,30.14,ENE,71,0.0,0.0,94,0.00,,,0.00,weatherlink.com 1.10,2013-01-21 07:46:00,
2013-01-21 03:01:00,25.9,24.0,30.14,ENE,71,0.0,0.0,94,0.00,,,0.00,weatherlink.com 1.10,2013-01-21 08:01:00,
2013-01-21 03:16:00,25.5,24.0,30.14,ENE,71,0.0,0.0,94,0.00,,,0.00,weatherlink.com 1.10,2013-01-21 08:16:00,
2013-01-21 03:32:00,25.4,24.0,30.14,ENE,71,0.0,0.0,94,0.00,,,0.00,weatherlink.com 1.10,2013-01-21 08:32:00,
2013-01-21 03:47:00,25.3,24.0,30.14,ENE,71,0.0,0.0,94,0.00,,,0.00,weatherlink.com 1.10,2013-01-21 08:47:00,
2013-01-21 04:02:00,25.1,24.0,30.14,ENE,71,0.0,0.0,94,0.00,,,0.00,weatherlink.com 1.10,2013-01-21 09:02:00,
2013-01-21 04:32:00,24.6,23.0,30.14,ENE,71,0.0,0.0,94,0.00,,,0.00,weatherlink.com 1.10,2013-01-21 09:32:00,
2013-01-21 04:47:00,24.3,23.0,30.13,ENE,71,0.0,0.0,94,0.00,,,0.00,weatherlink.com 1.10,2013-01-21 09:47:00,
2013-01-21 05:02:00,24.3,23.0,30.13,ENE,71,0.0,0.0,94,0.00,,,0.00,weatherlink.com 1.10,2013-01-21 10:02:00,
2013-01-21 05:17:00,24.2,23.0,30.13,ENE,71,0.0,0.0,94,0.00,,,0.00,weatherlink.com 1.10,2013-01-21 10:17:00,
2013-01-21 05:32:00,23.9,23.0,30.12,ENE,71,0.0,0.0,94,0.00,,,0.00,weatherlink.com 1.10,2013-01-21 10:32:00,
2013-01-21 05:47:00,23.6,22.0,30.12,ENE,71,0.0,0.0,94,0.00,,,0.00,weatherlink.com 1.10,2013-01-21 10:47:00,
2013-01-21 06:02:00,23.3,22.0,30.12,ENE,71,0.0,0.0,94,0.00,,,0.00,weatherlink.com 1.10,2013-01-21 11:02:00,
2013-01-21 06:17:00,23.1,22.0,30.12,ENE,71,0.0,0.0,94,0.00,,,0.00,weatherlink.com 1.10,2013-01-21 11:17:00,
2013-01-21 06:32:00,23.3,22.0,30.11,ENE,71,0.0,0.0,94,0.00,,,0.00,weatherlink.com 1.10,2013-01-21 11:32:00,
2013-01-21 06:47:00,23.1,22.0,30.11,ENE,71,0.0,0.0,94,0.00,,,0.00,weatherlink.com 1.10,2013-01-21 11:47:00,
2013-01-21 07:02:00,22.8,21.0,30.11,ENE,71,0.0,0.0,94,0.00,,,0.00,weatherlink.com 1.10,2013-01-21 12:02:00,
2013-01-21 07:17:00,22.8,21.0,30.12,ENE,71,0.0,0.0,94,0.00,,,0.00,weatherlink.com 1.10,2013-01-21 12:17:00,
2013-01-21 07:32:00,22.5,21.0,30.11,ENE,71,0.0,0.0,93,0.00,,,0.00,weatherlink.com 1.10,2013-01-21 12:32:00,
2013-01-21 07:47:00,22.3,21.0,30.12,ENE,71,0.0,1.0,94,0.00,,,0.00,weatherlink.com 1.10,2013-01-21 12:47:00,
2013-01-21 08:02:00,22.3,21.0,30.13,ENE,71,0.0,0.0,94,0.00,,,0.00,weatherlink.com 1.10,2013-01-21 13:02:00,
2013-01-21 08:17:00,22.6,21.0,30.13,ENE,71,0.0,0.0,94,0.00,,,0.00,weatherlink.com 1.10,2013-01-21 13:17:00,
2013-01-21 08:32:00,23.3,22.0,30.13,ENE,71,0.0,0.0,95,0.00,,,0.00,weatherlink.com 1.10,2013-01-21 13:32:00,
2013-01-21 08:47:00,23.8,23.0,30.14,ENE,71,0.0,1.0,95,0.00,,,0.00,weatherlink.com 1.10,2013-01-21 13:47:00,
2013-01-21 09:02:00,24.3,23.0,30.14,ENE,71,0.0,0.0,95,0.00,,,0.00,weatherlink.com 1.10,2013-01-21 14:02:00,
2013-01-21 09:17:00,25.2,24.0,30.14,ENE,71,0.0,1.0,95,0.00,,,0.00,weatherlink.com 1.10,2013-01-21 14:17:00,
2013-01-21 09:32:00,26.2,25.0,30.14,NW,310,0.0,2.0,95,0.00,,,0.00,weatherlink.com 1.10,2013-01-21 14:32:00,
2013-01-21 09:47:00,27.2,26.0,30.14,NW,310,0.0,2.0,96,0.00,,,0.00,weatherlink.com 1.10,2013-01-21 14:47:00,
2013-01-21 10:02:00,28.7,28.0,30.14,NW,310,0.0,1.0,96,0.00,,,0.00,weatherlink.com 1.10,2013-01-21 15:02:00,
2013-01-21 10:17:00,30.6,30.0,30.15,ESE,115,0.0,2.0,96,0.00,,,0.00,weatherlink.com 1.10,2013-01-21 15:17:00,
2013-01-21 10:32:00,33.9,28.0,30.15,ENE,68,3.0,7.0,79,0.00,,,0.00,weatherlink.com 1.10,2013-01-21 15:32:00,
2013-01-21 10:47:00,37.2,27.0,30.14,SE,130,1.0,8.0,66,0.00,,,0.00,weatherlink.com 1.10,2013-01-21 15:47:00,
2013-01-21 11:02:00,38.9,24.0,30.14,ENE,74,4.0,11.0,55,0.00,,,0.00,weatherlink.com 1.10,2013-01-21 16:02:00,
2013-01-21 11:17:00,39.5,26.0,30.13,ESE,104,7.0,9.0,58,0.00,,,0.00,weatherlink.com 1.10,2013-01-21 16:17:00,
2013-01-21 11:32:00,40.1,24.0,30.13,ENE,75,12.0,12.0,53,0.00,,,0.00,weatherlink.com 1.10,2013-01-21 16:32:00,
2013-01-21 11:47:00,40.4,25.0,30.12,ESE,115,0.0,11.0,54,0.00,,,0.00,weatherlink.com 1.10,2013-01-21 16:47:00,
2013-01-21 12:02:00,41.0,23.0,30.10,ESE,113,3.0,17.0,50,0.00,,,0.00,weatherlink.com 1.10,2013-01-21 17:02:00,
2013-01-21 12:18:00,41.3,23.0,30.09,East,82,6.0,9.0,49,0.00,,,0.00,weatherlink.com 1.10,2013-01-21 17:18:00,
2013-01-21 12:33:00,40.8,23.0,30.08,SE,132,3.0,10.0,50,0.00,,,0.00,weatherlink.com 1.10,2013-01-21 17:33:00,
2013-01-21 12:48:00,41.0,23.0,30.07,East,97,5.0,10.0,50,0.00,,,0.00,weatherlink.com 1.10,2013-01-21 17:48:00,
2013-01-21 13:03:00,41.2,22.0,30.06,ESE,113,7.0,13.0,46,0.00,,,0.00,weatherlink.com 1.10,2013-01-21 18:03:00,
2013-01-21 13:18:00,41.1,24.0,30.05,ESE,105,4.0,12.0,52,0.01,,,0.01,weatherlink.com 1.10,2013-01-21 18:18:00,
2013-01-21 13:33:00,41.2,24.0,30.04,East,98,6.0,11.0,50,0.02,,,0.02,weatherlink.com 1.10,2013-01-21 18:33:00,
2013-01-21 13:48:00,41.0,24.0,30.04,East,91,10.0,13.0,52,0.03,,,0.03,weatherlink.com 1.10,2013-01-21 18:48:00,
2013-01-21 14:03:00,40.5,25.0,30.04,East,96,15.0,15.0,54,0.04,,,0.04,weatherlink.com 1.10,2013-01-21 19:03:00,
2013-01-21 14:18:00,39.8,23.0,30.04,ENE,76,3.0,24.0,52,0.04,,,0.05,weatherlink.com 1.10,2013-01-21 19:18:00,
2013-01-21 14:33:00,39.6,25.0,30.04,ESE,105,2.0,13.0,56,0.04,,,0.06,weatherlink.com 1.10,2013-01-21 19:33:00,
2013-01-21 14:48:00,39.3,24.0,30.03,ENE,72,1.0,11.0,55,0.03,,,0.06,weatherlink.com 1.10,2013-01-21 19:48:00,
2013-01-21 15:03:00,39.3,25.0,30.03,East,86,6.0,10.0,56,0.03,,,0.07,weatherlink.com 1.10,2013-01-21 20:03:00,
2013-01-21 15:18:00,39.8,24.0,30.03,East,87,7.0,8.0,54,0.02,,,0.07,weatherlink.com 1.10,2013-01-21 20:18:00,
2013-01-21 15:33:00,39.1,21.0,30.05,East,82,9.0,17.0,49,0.02,,,0.08,weatherlink.com 1.10,2013-01-21 20:33:00,
2013-01-21 15:48:00,38.4,21.0,30.04,ENE,73,7.0,16.0,49,0.02,,,0.08,weatherlink.com 1.10,2013-01-21 20:48:00,
2013-01-21 16:03:00,37.8,20.0,30.04,East,86,8.0,14.0,49,0.02,,,0.09,weatherlink.com 1.10,2013-01-21 21:03:00,
2013-01-21 16:18:00,37.1,19.0,30.04,NE,42,2.0,13.0,49,0.02,,,0.09,weatherlink.com 1.10,2013-01-21 21:18:00,
2013-01-21 16:33:00,36.5,19.0,30.04,ESE,118,2.0,16.0,49,0.01,,,0.09,weatherlink.com 1.10,2013-01-21 21:33:00,
2013-01-21 16:48:00,36.1,18.0,30.04,East,82,11.0,17.0,48,0.01,,,0.09,weatherlink.com 1.10,2013-01-21 21:48:00,
2013-01-21 17:03:00,35.6,17.0,30.05,East,101,3.0,14.0,47,0.00,,,0.09,weatherlink.com 1.10,2013-01-21 22:03:00,
2013-01-21 17:18:00,35.1,17.0,30.05,East,92,8.0,15.0,48,0.00,,,0.09,weatherlink.com 1.10,2013-01-21 22:18:00,
2013-01-21 17:33:00,34.7,16.0,30.04,ESE,105,2.0,11.0,47,0.00,,,0.09,weatherlink.com 1.10,2013-01-21 22:33:00,
2013-01-21 17:48:00,34.2,16.0,30.04,ESE,107,12.0,13.0,47,0.00,,,0.09,weatherlink.com 1.10,2013-01-21 22:48:00,
2013-01-21 18:03:00,33.9,15.0,30.04,NE,44,2.0,13.0,46,0.00,,,0.09,weatherlink.com 1.10,2013-01-21 23:03:00,
2013-01-21 18:18:00,33.5,15.0,30.04,ESE,111,2.0,16.0,47,0.00,,,0.09,weatherlink.com 1.10,2013-01-21 23:18:00,
2013-01-21 18:33:00,33.3,15.0,30.04,ENE,69,9.0,13.0,47,0.00,,,0.09,weatherlink.com 1.10,2013-01-21 23:33:00,
2013-01-21 18:48:00,33.2,15.0,30.04,ESE,115,2.0,13.0,48,0.00,,,0.09,weatherlink.com 1.10,2013-01-21 23:48:00,
2013-01-21 19:03:00,32.9,15.0,30.04,ENE,70,4.0,11.0,48,0.00,,,0.09,weatherlink.com 1.10,2013-01-22 00:03:00,
2013-01-21 19:18:00,32.6,16.0,30.04,East,84,2.0,12.0,50,0.00,,,0.09,weatherlink.com 1.10,2013-01-22 00:18:00,
2013-01-21 19:33:00,32.4,15.0,30.03,NE,56,3.0,19.0,49,0.00,,,0.09,weatherlink.com 1.10,2013-01-22 00:33:00,
2013-01-21 19:48:00,32.2,15.0,30.02,NE,56,3.0,14.0,50,0.00,,,0.09,weatherlink.com 1.10,2013-01-22 00:48:00,
2013-01-21 20:03:00,32.0,15.0,30.03,SE,143,8.0,21.0,50,0.00,,,0.09,weatherlink.com 1.10,2013-01-22 01:03:00,
2013-01-21 20:18:00,31.7,14.0,30.02,ENE,78,9.0,21.0,49,0.00,,,0.09,weatherlink.com 1.10,2013-01-22 01:18:00,
2013-01-21 20:33:00,31.2,14.0,30.02,East,94,13.0,24.0,50,0.00,,,0.09,weatherlink.com 1.10,2013-01-22 01:33:00,
2013-01-21 20:48:00,30.9,14.0,30.02,NNE,26,7.0,16.0,49,0.00,,,0.09,weatherlink.com 1.10,2013-01-22 01:48:00,
2013-01-21 21:03:00,30.7,14.0,30.02,SE,139,7.0,24.0,50,0.00,,,0.09,weatherlink.com 1.10,2013-01-22 02:03:00,
2013-01-21 21:18:00,30.1,14.0,30.02,South,175,5.0,18.0,51,0.00,,,0.09,weatherlink.com 1.10,2013-01-22 02:18:00,
2013-01-21 21:33:00,29.7,13.0,30.02,ESE,106,3.0,15.0,51,0.00,,,0.09,weatherlink.com 1.10,2013-01-22 02:33:00,
2013-01-21 21:48:00,29.3,13.0,30.02,NE,53,7.0,21.0,50,0.00,,,0.09,weatherlink.com 1.10,2013-01-22 02:48:00,
2013-01-21 22:03:00,28.9,10.0,30.03,East,101,6.0,24.0,46,0.00,,,0.09,weatherlink.com 1.10,2013-01-22 03:03:00,
2013-01-21 22:18:00,28.4,9.0,30.03,ESE,106,11.0,21.0,44,0.00,,,0.09,weatherlink.com 1.10,2013-01-22 03:18:00,
2013-01-21 22:33:00,27.9,8.0,30.03,East,90,9.0,26.0,43,0.00,,,0.09,weatherlink.com 1.10,2013-01-22 03:33:00,
2013-01-21 22:48:00,27.4,7.0,30.03,ENE,67,12.0,25.0,43,0.00,,,0.09,weatherlink.com 1.10,2013-01-22 03:48:00,
2013-01-21 23:03:00,26.9,8.0,30.04,ENE,76,14.0,21.0,44,0.00,,,0.09,weatherlink.com 1.10,2013-01-22 04:03:00,
2013-01-21 23:18:00,26.3,8.0,30.04,East,82,8.0,23.0,45,0.00,,,0.09,weatherlink.com 1.10,2013-01-22 04:18:00,
2013-01-21 23:33:00,25.8,7.0,30.04,ENE,73,12.0,19.0,45,0.00,,,0.09,weatherlink.com 1.10,2013-01-22 04:33:00,
2013-01-21 23:48:00,25.2,7.0,30.04,ESE,115,11.0,22.0,47,0.00,,,0.09,weatherlink.com 1.10,2013-01-22 04:48:00,